createdAt,value
2022-12-23T00:02:14.291Z,8.9
2022-12-23T00:07:53.226Z,8.9
2022-12-23T00:13:22.973Z,8.9
2022-12-23T00:18:51.915Z,8.9
2022-12-23T00:24:33.240Z,9
2022-12-23T00:30:15.466Z,9
2022-12-23T00:35:35.625Z,9
2022-12-23T00:41:22.590Z,9.1
2022-12-23T00:46:56.787Z,9.1
2022-12-23T00:52:22.611Z,9.1
2022-12-23T00:57:49.730Z,9.1
2022-12-23T01:03:33.106Z,9.2
2022-12-23T01:09:03.402Z,9.2
2022-12-23T01:14:23.234Z,9.2
2022-12-23T01:20:02.013Z,9.2
2022-12-23T01:25:29.987Z,9.3
2022-12-23T01:31:17.959Z,9.2
2022-12-23T01:36:37.776Z,9.3
2022-12-23T01:42:18.417Z,9.3
2022-12-23T01:47:37.686Z,9.3
2022-12-23T01:53:33.856Z,9.3
2022-12-23T01:58:44.443Z,9.4
2022-12-23T02:04:30.736Z,9.4
2022-12-23T02:10:01.191Z,9.4
2022-12-23T02:15:29.223Z,9.4
2022-12-23T02:21:04.103Z,9.4
2022-12-23T02:26:37.469Z,9.4
2022-12-23T02:32:24.215Z,9.5
2022-12-23T02:37:46.465Z,9.5
2022-12-23T02:43:15.235Z,9.5
2022-12-23T02:49:04.063Z,9.6
2022-12-23T02:54:17.085Z,9.6
2022-12-23T03:00:09.223Z,9.6
2022-12-23T03:05:43.311Z,9.6
2022-12-23T03:11:02.819Z,9.6
2022-12-23T03:16:48.119Z,9.6
2022-12-23T03:22:05.566Z,9.6
2022-12-23T03:27:39.179Z,9.7
2022-12-23T03:33:33.822Z,9.7
2022-12-23T03:39:05.261Z,9.7
2022-12-23T03:44:37.204Z,9.8
2022-12-23T03:50:11.525Z,9.8
2022-12-23T03:55:26.994Z,9.8
2022-12-23T04:01:17.910Z,9.8
2022-12-23T04:06:41.257Z,9.8
2022-12-23T04:12:07.647Z,9.8
2022-12-23T04:17:42.851Z,9.9
2022-12-23T04:23:26.449Z,9.9
2022-12-23T04:29:00.885Z,9.9
2022-12-23T04:34:15.143Z,9.9
2022-12-23T04:40:06.477Z,9.9
2022-12-23T04:45:28.290Z,9.9
2022-12-23T04:51:10.332Z,9.9
2022-12-23T04:56:37.998Z,10
2022-12-23T05:02:19.781Z,10
2022-12-23T05:07:50.751Z,10
2022-12-23T05:13:16.025Z,10
2022-12-23T05:19:06.251Z,10
2022-12-23T05:24:15.183Z,10
2022-12-23T05:30:13.023Z,10
2022-12-23T05:35:21.874Z,10.1
2022-12-23T05:41:19.221Z,10.2
2022-12-23T05:52:10.609Z,10.3
2022-12-23T05:57:47.943Z,10.2
2022-12-23T06:03:22.459Z,10.3
2022-12-23T06:09:03.270Z,10.2
2022-12-23T06:14:32.349Z,10.2
2022-12-23T06:20:05.066Z,10.2
2022-12-23T06:25:37.856Z,10.2
2022-12-23T06:31:12.885Z,10.2
2022-12-23T06:36:27.191Z,10.3
2022-12-23T06:42:22.833Z,10.3
2022-12-23T06:47:46.395Z,10.2
2022-12-23T06:53:03.468Z,10.2
2022-12-23T06:58:37.295Z,10.2
2022-12-23T07:04:23.836Z,10.2
2022-12-23T07:09:53.032Z,10.2
2022-12-23T07:15:29.849Z,10.3
2022-12-23T07:21:21.524Z,10.3
2022-12-23T07:26:28.621Z,10.3
2022-12-23T07:32:08.664Z,10.4
2022-12-23T07:37:49.143Z,10.5
2022-12-23T07:43:01.787Z,10.5
2022-12-23T07:48:52.974Z,10.5
2022-12-23T07:54:26.935Z,10.5
2022-12-23T07:59:42.942Z,10.5
2022-12-23T08:05:23.385Z,10.5
2022-12-23T08:11:07.196Z,10.5
2022-12-23T08:16:48.871Z,10.5
2022-12-23T08:22:02.284Z,10.4
2022-12-23T08:27:53.526Z,10.5
2022-12-23T08:33:21.836Z,10.4
2022-12-23T08:38:41.282Z,10.3
2022-12-23T08:44:21.334Z,10.3
2022-12-23T08:50:06.542Z,10.3
2022-12-23T08:55:36.733Z,10.4
2022-12-23T09:00:56.548Z,10.4
2022-12-23T09:06:32.175Z,10.3
2022-12-23T09:12:19.167Z,10.4
2022-12-23T09:17:46.087Z,10.4
2022-12-23T09:23:23.281Z,10.4
2022-12-23T09:28:34.096Z,10.4
2022-12-23T09:34:19.708Z,10.5
2022-12-23T09:40:02.705Z,10.5
2022-12-23T09:45:17.728Z,10.5
2022-12-23T09:50:51.896Z,10.5
2022-12-23T09:56:19.212Z,10.5
2022-12-23T10:02:18.824Z,10.5
2022-12-23T10:07:41.504Z,10.6
2022-12-23T10:13:01.259Z,10.6
2022-12-23T10:18:43.003Z,10.6
2022-12-23T10:24:08.749Z,10.6
2022-12-23T10:29:49.977Z,10.7
2022-12-23T10:35:28.985Z,10.7
2022-12-23T10:40:49.549Z,10.7
2022-12-23T10:46:27.311Z,10.8
2022-12-23T10:52:09.854Z,10.8
2022-12-23T10:57:25.377Z,10.8
2022-12-23T11:02:59.335Z,10.8
2022-12-23T11:08:42.061Z,10.8
2022-12-23T11:14:29.515Z,10.9
2022-12-23T11:19:52.124Z,10.9
2022-12-23T11:25:32.048Z,10.9
2022-12-23T11:30:48.922Z,11
2022-12-23T11:36:44.193Z,11
2022-12-23T11:42:11.343Z,10.9
2022-12-23T11:47:45.548Z,10.9
2022-12-23T11:52:58.382Z,10.9
2022-12-23T11:58:29.383Z,10.9
2022-12-23T12:04:04.076Z,10.9
2022-12-23T12:09:58.535Z,10.8
2022-12-23T12:20:54.960Z,10.9
2022-12-23T12:26:38.717Z,10.9
2022-12-23T12:31:58.428Z,10.9
2022-12-23T12:37:32.875Z,10.9
2022-12-23T12:42:56.869Z,10.9
2022-12-23T12:48:44.273Z,10.8
2022-12-23T12:54:24.262Z,10.9
2022-12-23T13:00:03.767Z,10.8
2022-12-23T13:05:23.326Z,10.9
2022-12-23T13:10:58.810Z,10.8
2022-12-23T13:16:40.180Z,10.9
2022-12-23T13:22:01.213Z,10.9
2022-12-23T13:27:23.211Z,10.9
2022-12-23T13:33:13.316Z,10.9
2022-12-23T13:38:40.460Z,10.9
2022-12-23T13:44:25.995Z,10.9
2022-12-23T13:50:03.901Z,10.9
2022-12-23T13:55:15.913Z,11
2022-12-23T14:00:54.348Z,11
2022-12-23T14:06:42.789Z,10.9
2022-12-23T14:11:56.257Z,10.9
2022-12-23T14:17:49.451Z,11
2022-12-23T14:23:04.918Z,11
2022-12-23T14:28:46.359Z,11
2022-12-23T14:34:12.399Z,11
2022-12-23T14:39:40.495Z,10.9
2022-12-23T14:45:26.270Z,10.9
2022-12-23T14:50:57.555Z,10.9
2022-12-23T14:56:27.653Z,10.9
2022-12-23T15:01:50.044Z,10.9
2022-12-23T15:07:27.587Z,11
2022-12-23T15:13:23.467Z,11
2022-12-23T15:18:48.609Z,11
2022-12-23T15:24:24.856Z,11
2022-12-23T15:29:44.761Z,11
2022-12-23T15:35:36.594Z,10.9
2022-12-23T15:40:53.256Z,11
2022-12-23T15:46:39.299Z,10.9
2022-12-23T15:52:07.728Z,10.9
2022-12-23T15:57:25.932Z,10.9
2022-12-23T16:08:59.183Z,10.9
2022-12-23T16:14:12.555Z,11
2022-12-23T16:19:49.866Z,11
2022-12-23T16:25:28.107Z,11
2022-12-23T16:30:56.831Z,10.9
2022-12-23T16:36:36.565Z,11
2022-12-23T16:42:14.013Z,11
2022-12-23T16:47:30.132Z,11.1
2022-12-23T16:53:08.966Z,11.1
2022-12-23T16:58:45.853Z,11.1
2022-12-23T17:04:31.596Z,11.1
2022-12-23T17:10:02.360Z,11
2022-12-23T17:15:31.421Z,11
2022-12-23T17:37:48.115Z,11.2
2022-12-23T17:48:45.050Z,11.2
2022-12-23T17:54:25.277Z,11.1
2022-12-23T18:00:05.774Z,11.1
2022-12-23T18:05:45.393Z,11.3
2022-12-23T18:11:07.176Z,11.3
2022-12-23T18:16:48.338Z,11.3
2022-12-23T18:22:24.746Z,11.4
2022-12-23T18:27:35.379Z,11.3
2022-12-23T18:33:31.497Z,11.5
2022-12-23T18:38:47.387Z,11.5
2022-12-23T18:44:28.028Z,11.5
2022-12-23T18:49:46.001Z,11.6
2022-12-23T18:55:44.501Z,11.5
2022-12-23T19:01:18.436Z,11.5
2022-12-23T19:06:37.425Z,11.4
2022-12-23T19:12:17.351Z,11.3
2022-12-23T19:17:36.992Z,11.1
2022-12-23T19:23:13.302Z,11.1
2022-12-23T19:28:55.379Z,11.1
2022-12-23T19:34:32.237Z,11.2
2022-12-23T19:39:50.868Z,11.2
2022-12-23T19:45:43.867Z,11.2
2022-12-23T19:51:04.605Z,11.1
2022-12-23T19:56:33.918Z,11.1
2022-12-23T20:02:22.034Z,11.1
2022-12-23T20:07:32.468Z,11
2022-12-23T20:13:27.188Z,11
2022-12-23T20:18:44.639Z,10.9
2022-12-23T20:24:32.788Z,10.9
2022-12-23T20:30:09.831Z,11.1
2022-12-23T20:35:41.997Z,11.1
2022-12-23T20:41:10.067Z,11
2022-12-23T20:46:35.757Z,10.9
2022-12-23T20:52:15.833Z,10.8
2022-12-23T20:57:32.181Z,10.8
2022-12-23T21:03:06.878Z,10.9
2022-12-23T21:08:54.020Z,10.8
2022-12-23T21:14:33.484Z,10.7
2022-12-23T21:20:10.295Z,10.7
2022-12-23T21:25:32.580Z,10.7
2022-12-23T21:31:11.543Z,10.6
2022-12-23T21:36:24.097Z,10.6
2022-12-23T21:42:20.084Z,10.7
2022-12-23T21:47:52.572Z,11
2022-12-23T21:53:09.674Z,11.2
2022-12-23T21:58:45.464Z,11.3
2022-12-23T22:04:14.178Z,11.3
2022-12-23T22:10:11.860Z,11.3
2022-12-23T22:15:18.647Z,11.4
2022-12-23T22:20:55.405Z,11.4
2022-12-23T22:26:35.405Z,11.3
2022-12-23T22:31:59.905Z,11.3
2022-12-23T22:37:37.775Z,11.3
2022-12-23T22:43:17.085Z,11.4
2022-12-23T22:49:05.141Z,11.6
2022-12-23T22:54:17.540Z,11.6
2022-12-23T22:59:55.742Z,11.4
2022-12-23T23:10:56.665Z,11.3
2022-12-23T23:16:42.187Z,11.3
2022-12-23T23:22:17.374Z,11.2
2022-12-23T23:27:46.926Z,11.3
2022-12-23T23:33:26.637Z,11.1
2022-12-23T23:38:52.807Z,11.2
2022-12-23T23:44:17.349Z,11.2
2022-12-23T23:50:09.780Z,11.2
2022-12-23T23:55:26.731Z,11
